sensor_id;sensor_type;location;lat;lon;timestamp;temperature;humidity
19878;DHT22;10101;52.204;9.910;2022-09-29T00:00:40;6.90;99.90
19878;DHT22;10101;52.204;9.910;2022-09-29T00:03:06;6.80;99.90
19878;DHT22;10101;52.204;9.910;2022-09-29T00:05:33;6.70;99.90
19878;DHT22;10101;52.204;9.910;2022-09-29T00:08:00;6.70;99.90
19878;DHT22;10101;52.204;9.910;2022-09-29T00:10:28;6.60;99.90
19878;DHT22;10101;52.204;9.910;2022-09-29T00:12:55;6.60;99.90
19878;DHT22;10101;52.204;9.910;2022-09-29T00:15:22;6.50;99.90
19878;DHT22;10101;52.204;9.910;2022-09-29T00:17:49;6.60;99.90
19878;DHT22;10101;52.204;9.910;2022-09-29T00:20:15;6.50;99.90
19878;DHT22;10101;52.204;9.910;2022-09-29T00:22:42;6.40;99.90
19878;DHT22;10101;52.204;9.910;2022-09-29T00:25:09;6.30;99.90
19878;DHT22;10101;52.204;9.910;2022-09-29T00:27:37;6.30;99.90
19878;DHT22;10101;52.204;9.910;2022-09-29T00:30:04;6.30;99.90
19878;DHT22;10101;52.204;9.910;2022-09-29T00:32:31;6.20;99.90
19878;DHT22;10101;52.204;9.910;2022-09-29T00:34:58;6.20;99.90
19878;DHT22;10101;52.204;9.910;2022-09-29T00:37:25;6.10;99.90
19878;DHT22;10101;52.204;9.910;2022-09-29T00:39:52;6.00;99.90
19878;DHT22;10101;52.204;9.910;2022-09-29T00:42:20;6.00;99.90
19878;DHT22;10101;52.204;9.910;2022-09-29T00:45:05;5.90;99.90
19878;DHT22;10101;52.204;9.910;2022-09-29T00:47:39;5.90;99.90
19878;DHT22;10101;52.204;9.910;2022-09-29T00:50:13;5.90;99.90
19878;DHT22;10101;52.204;9.910;2022-09-29T00:52:43;5.80;99.90
19878;DHT22;10101;52.204;9.910;2022-09-29T00:55:16;5.80;99.90
19878;DHT22;10101;52.204;9.910;2022-09-29T00:57:47;5.80;99.90
19878;DHT22;10101;52.204;9.910;2022-09-29T01:00:17;5.70;99.90
19878;DHT22;10101;52.204;9.910;2022-09-29T01:02:47;5.70;99.90
19878;DHT22;10101;52.204;9.910;2022-09-29T01:05:20;5.70;99.90
19878;DHT22;10101;52.204;9.910;2022-09-29T01:07:47;5.80;99.90
19878;DHT22;10101;52.204;9.910;2022-09-29T01:10:16;5.60;99.90
19878;DHT22;10101;52.204;9.910;2022-09-29T01:12:45;5.40;99.90
19878;DHT22;10101;52.204;9.910;2022-09-29T01:15:16;5.40;99.90
19878;DHT22;10101;52.204;9.910;2022-09-29T01:17:45;5.40;99.90
19878;DHT22;10101;52.204;9.910;2022-09-29T01:20:15;5.50;99.90
19878;DHT22;10101;52.204;9.910;2022-09-29T01:26:07;5.40;99.90
19878;DHT22;10101;52.204;9.910;2022-09-29T01:28:54;5.30;99.90
19878;DHT22;10101;52.204;9.910;2022-09-29T01:31:32;5.30;99.90
19878;DHT22;10101;52.204;9.910;2022-09-29T01:34:07;5.40;99.90
19878;DHT22;10101;52.204;9.910;2022-09-29T01:36:43;5.30;99.90
19878;DHT22;10101;52.204;9.910;2022-09-29T01:39:18;5.30;99.90
19878;DHT22;10101;52.204;9.910;2022-09-29T01:41:50;5.20;99.90
19878;DHT22;10101;52.204;9.910;2022-09-29T01:44:25;5.20;99.90
19878;DHT22;10101;52.204;9.910;2022-09-29T01:46:56;5.10;99.90
19878;DHT22;10101;52.204;9.910;2022-09-29T01:49:27;5.00;99.90
19878;DHT22;10101;52.204;9.910;2022-09-29T01:51:58;5.00;99.90
19878;DHT22;10101;52.204;9.910;2022-09-29T01:54:36;5.00;99.90
19878;DHT22;10101;52.204;9.910;2022-09-29T01:57:08;5.10;99.90
19878;DHT22;10101;52.204;9.910;2022-09-29T01:59:40;4.80;99.90
19878;DHT22;10101;52.204;9.910;2022-09-29T02:02:13;4.90;99.90
19878;DHT22;10101;52.204;9.910;2022-09-29T02:04:45;5.00;99.90
19878;DHT22;10101;52.204;9.910;2022-09-29T02:07:17;4.90;99.90
19878;DHT22;10101;52.204;9.910;2022-09-29T02:09:51;4.80;99.90
19878;DHT22;10101;52.204;9.910;2022-09-29T02:12:23;4.90;99.90
19878;DHT22;10101;52.204;9.910;2022-09-29T02:14:52;4.90;99.90
19878;DHT22;10101;52.204;9.910;2022-09-29T02:17:23;4.90;99.90
19878;DHT22;10101;52.204;9.910;2022-09-29T02:19:52;4.70;99.90
19878;DHT22;10101;52.204;9.910;2022-09-29T02:22:20;4.70;99.90
19878;DHT22;10101;52.204;9.910;2022-09-29T02:24:48;4.80;99.90
19878;DHT22;10101;52.204;9.910;2022-09-29T02:27:15;4.80;99.90
19878;DHT22;10101;52.204;9.910;2022-09-29T02:29:43;4.90;99.90
19878;DHT22;10101;52.204;9.910;2022-09-29T02:32:10;4.80;99.90
19878;DHT22;10101;52.204;9.910;2022-09-29T02:34:41;4.80;99.90
19878;DHT22;10101;52.204;9.910;2022-09-29T02:37:30;4.90;99.90
19878;DHT22;10101;52.204;9.910;2022-09-29T02:40:13;4.80;99.90
19878;DHT22;10101;52.204;9.910;2022-09-29T02:42:50;4.90;99.90
19878;DHT22;10101;52.204;9.910;2022-09-29T02:45:29;5.00;99.90
19878;DHT22;10101;52.204;9.910;2022-09-29T02:48:09;5.10;99.90
19878;DHT22;10101;52.204;9.910;2022-09-29T02:53:35;5.20;99.90
19878;DHT22;10101;52.204;9.910;2022-09-29T02:56:11;5.10;99.90
19878;DHT22;10101;52.204;9.910;2022-09-29T02:58:46;5.20;99.90
19878;DHT22;10101;52.204;9.910;2022-09-29T03:01:15;5.10;99.90
19878;DHT22;10101;52.204;9.910;2022-09-29T03:03:42;5.20;99.90
19878;DHT22;10101;52.204;9.910;2022-09-29T03:06:12;5.20;99.90
19878;DHT22;10101;52.204;9.910;2022-09-29T03:08:39;5.20;99.90
19878;DHT22;10101;52.204;9.910;2022-09-29T03:11:06;5.30;99.90
19878;DHT22;10101;52.204;9.910;2022-09-29T03:13:33;5.30;99.90
19878;DHT22;10101;52.204;9.910;2022-09-29T03:16:00;5.40;99.90
19878;DHT22;10101;52.204;9.910;2022-09-29T03:18:27;5.40;99.90
19878;DHT22;10101;52.204;9.910;2022-09-29T03:20:53;5.40;99.90
19878;DHT22;10101;52.204;9.910;2022-09-29T03:23:22;5.30;99.90
19878;DHT22;10101;52.204;9.910;2022-09-29T03:25:48;5.40;99.90
19878;DHT22;10101;52.204;9.910;2022-09-29T03:28:15;5.40;99.90
19878;DHT22;10101;52.204;9.910;2022-09-29T03:30:42;5.30;99.90
19878;DHT22;10101;52.204;9.910;2022-09-29T03:33:10;5.30;99.90
19878;DHT22;10101;52.204;9.910;2022-09-29T03:35:37;5.20;99.90
19878;DHT22;10101;52.204;9.910;2022-09-29T03:38:03;5.20;99.90
19878;DHT22;10101;52.204;9.910;2022-09-29T03:40:31;5.20;99.90
19878;DHT22;10101;52.204;9.910;2022-09-29T03:42:58;5.10;99.90
19878;DHT22;10101;52.204;9.910;2022-09-29T03:45:25;5.10;99.90
19878;DHT22;10101;52.204;9.910;2022-09-29T03:47:52;5.00;99.90
19878;DHT22;10101;52.204;9.910;2022-09-29T03:50:19;4.90;99.90
19878;DHT22;10101;52.204;9.910;2022-09-29T03:52:46;5.00;99.90
19878;DHT22;10101;52.204;9.910;2022-09-29T03:55:12;5.00;99.90
19878;DHT22;10101;52.204;9.910;2022-09-29T03:57:40;5.00;99.90
19878;DHT22;10101;52.204;9.910;2022-09-29T04:00:09;5.00;99.90
19878;DHT22;10101;52.204;9.910;2022-09-29T04:02:35;5.00;99.90
19878;DHT22;10101;52.204;9.910;2022-09-29T04:05:03;5.00;99.90
19878;DHT22;10101;52.204;9.910;2022-09-29T04:07:30;5.10;99.90
19878;DHT22;10101;52.204;9.910;2022-09-29T04:09:57;5.10;99.90
19878;DHT22;10101;52.204;9.910;2022-09-29T04:12:24;5.10;99.90
19878;DHT22;10101;52.204;9.910;2022-09-29T04:14:52;5.20;99.90
19878;DHT22;10101;52.204;9.910;2022-09-29T04:17:18;5.20;99.90
19878;DHT22;10101;52.204;9.910;2022-09-29T04:19:46;5.30;99.90
19878;DHT22;10101;52.204;9.910;2022-09-29T04:22:14;5.30;99.90
19878;DHT22;10101;52.204;9.910;2022-09-29T04:24:42;5.30;99.90
19878;DHT22;10101;52.204;9.910;2022-09-29T04:27:09;5.30;99.90
19878;DHT22;10101;52.204;9.910;2022-09-29T04:29:36;5.30;99.90
19878;DHT22;10101;52.204;9.910;2022-09-29T04:32:04;5.30;99.90
19878;DHT22;10101;52.204;9.910;2022-09-29T04:34:31;5.30;99.90
19878;DHT22;10101;52.204;9.910;2022-09-29T04:36:58;5.40;99.90
19878;DHT22;10101;52.204;9.910;2022-09-29T04:39:26;5.40;99.90
19878;DHT22;10101;52.204;9.910;2022-09-29T04:41:53;5.40;99.90
19878;DHT22;10101;52.204;9.910;2022-09-29T04:44:19;5.50;99.90
19878;DHT22;10101;52.204;9.910;2022-09-29T04:46:48;5.50;99.90
19878;DHT22;10101;52.204;9.910;2022-09-29T04:49:17;5.50;99.90
19878;DHT22;10101;52.204;9.910;2022-09-29T04:51:43;5.60;99.90
19878;DHT22;10101;52.204;9.910;2022-09-29T04:54:10;5.60;99.90
19878;DHT22;10101;52.204;9.910;2022-09-29T04:56:37;5.60;99.90
19878;DHT22;10101;52.204;9.910;2022-09-29T04:59:04;5.60;99.90
19878;DHT22;10101;52.204;9.910;2022-09-29T05:01:31;5.50;99.90
19878;DHT22;10101;52.204;9.910;2022-09-29T05:03:58;5.50;99.90
19878;DHT22;10101;52.204;9.910;2022-09-29T05:06:27;5.50;99.90
19878;DHT22;10101;52.204;9.910;2022-09-29T05:08:53;5.50;99.90
19878;DHT22;10101;52.204;9.910;2022-09-29T05:11:20;5.50;99.90
19878;DHT22;10101;52.204;9.910;2022-09-29T05:13:47;5.50;99.90
19878;DHT22;10101;52.204;9.910;2022-09-29T05:16:15;5.50;99.90
19878;DHT22;10101;52.204;9.910;2022-09-29T05:18:42;5.40;99.90
19878;DHT22;10101;52.204;9.910;2022-09-29T05:21:09;5.40;99.90
19878;DHT22;10101;52.204;9.910;2022-09-29T05:23:37;5.30;99.90
19878;DHT22;10101;52.204;9.910;2022-09-29T05:26:05;5.30;99.90
19878;DHT22;10101;52.204;9.910;2022-09-29T05:28:33;5.30;99.90
19878;DHT22;10101;52.204;9.910;2022-09-29T05:31:01;5.30;99.90
19878;DHT22;10101;52.204;9.910;2022-09-29T05:33:27;5.30;99.90
19878;DHT22;10101;52.204;9.910;2022-09-29T05:35:54;5.30;99.90
19878;DHT22;10101;52.204;9.910;2022-09-29T05:38:21;5.20;99.90
19878;DHT22;10101;52.204;9.910;2022-09-29T05:40:50;5.20;99.90
19878;DHT22;10101;52.204;9.910;2022-09-29T05:43:17;5.20;99.90
19878;DHT22;10101;52.204;9.910;2022-09-29T05:45:43;5.20;99.90
19878;DHT22;10101;52.204;9.910;2022-09-29T05:48:11;5.20;99.90
19878;DHT22;10101;52.204;9.910;2022-09-29T05:50:38;5.30;99.90
19878;DHT22;10101;52.204;9.910;2022-09-29T05:53:07;5.30;99.90
19878;DHT22;10101;52.204;9.910;2022-09-29T05:55:35;5.30;99.90
19878;DHT22;10101;52.204;9.910;2022-09-29T05:58:03;5.30;99.90
19878;DHT22;10101;52.204;9.910;2022-09-29T06:00:30;5.30;99.90
19878;DHT22;10101;52.204;9.910;2022-09-29T06:02:57;5.30;99.90
19878;DHT22;10101;52.204;9.910;2022-09-29T06:05:24;5.50;99.90
19878;DHT22;10101;52.204;9.910;2022-09-29T06:07:52;5.40;99.90
19878;DHT22;10101;52.204;9.910;2022-09-29T06:10:19;5.40;99.90
19878;DHT22;10101;52.204;9.910;2022-09-29T06:12:45;5.50;99.90
19878;DHT22;10101;52.204;9.910;2022-09-29T06:15:14;5.50;99.90
19878;DHT22;10101;52.204;9.910;2022-09-29T06:17:40;5.60;99.90
19878;DHT22;10101;52.204;9.910;2022-09-29T06:20:08;5.60;99.90
19878;DHT22;10101;52.204;9.910;2022-09-29T06:22:35;5.70;99.90
19878;DHT22;10101;52.204;9.910;2022-09-29T06:25:02;5.70;99.90
19878;DHT22;10101;52.204;9.910;2022-09-29T06:27:29;5.80;99.90
19878;DHT22;10101;52.204;9.910;2022-09-29T06:29:55;5.80;99.90
19878;DHT22;10101;52.204;9.910;2022-09-29T06:32:23;5.80;99.90
19878;DHT22;10101;52.204;9.910;2022-09-29T06:34:50;5.90;99.90
19878;DHT22;10101;52.204;9.910;2022-09-29T06:37:42;5.90;99.90
19878;DHT22;10101;52.204;9.910;2022-09-29T06:40:11;5.90;99.90
19878;DHT22;10101;52.204;9.910;2022-09-29T06:42:38;5.90;99.90
19878;DHT22;10101;52.204;9.910;2022-09-29T06:45:06;6.00;99.90
19878;DHT22;10101;52.204;9.910;2022-09-29T06:47:34;6.10;99.90
19878;DHT22;10101;52.204;9.910;2022-09-29T06:50:01;6.10;99.90
19878;DHT22;10101;52.204;9.910;2022-09-29T06:52:28;6.10;99.90
19878;DHT22;10101;52.204;9.910;2022-09-29T06:54:54;6.10;99.90
19878;DHT22;10101;52.204;9.910;2022-09-29T06:57:21;6.20;99.90
19878;DHT22;10101;52.204;9.910;2022-09-29T06:59:48;6.20;99.90
19878;DHT22;10101;52.204;9.910;2022-09-29T07:02:14;6.30;99.90
19878;DHT22;10101;52.204;9.910;2022-09-29T07:04:42;6.30;99.90
19878;DHT22;10101;52.204;9.910;2022-09-29T07:07:09;6.50;99.90
19878;DHT22;10101;52.204;9.910;2022-09-29T07:09:36;6.70;99.90
19878;DHT22;10101;52.204;9.910;2022-09-29T07:12:02;6.90;99.90
19878;DHT22;10101;52.204;9.910;2022-09-29T07:14:30;7.10;99.90
19878;DHT22;10101;52.204;9.910;2022-09-29T07:16:57;7.20;99.90
19878;DHT22;10101;52.204;9.910;2022-09-29T07:19:25;7.30;99.90
19878;DHT22;10101;52.204;9.910;2022-09-29T07:21:53;7.40;99.90
19878;DHT22;10101;52.204;9.910;2022-09-29T07:24:19;7.70;99.90
19878;DHT22;10101;52.204;9.910;2022-09-29T07:26:48;7.80;99.90
19878;DHT22;10101;52.204;9.910;2022-09-29T07:29:15;8.00;99.90
19878;DHT22;10101;52.204;9.910;2022-09-29T07:31:42;8.00;99.90
19878;DHT22;10101;52.204;9.910;2022-09-29T07:34:10;8.10;99.90
19878;DHT22;10101;52.204;9.910;2022-09-29T07:36:36;8.10;99.90
19878;DHT22;10101;52.204;9.910;2022-09-29T07:39:04;8.20;99.90
19878;DHT22;10101;52.204;9.910;2022-09-29T07:41:31;8.30;99.90
19878;DHT22;10101;52.204;9.910;2022-09-29T07:43:58;8.30;99.90
19878;DHT22;10101;52.204;9.910;2022-09-29T07:46:26;8.60;99.90
19878;DHT22;10101;52.204;9.910;2022-09-29T07:48:52;8.50;99.90
19878;DHT22;10101;52.204;9.910;2022-09-29T07:51:19;8.50;99.90
19878;DHT22;10101;52.204;9.910;2022-09-29T07:53:46;8.60;99.90
19878;DHT22;10101;52.204;9.910;2022-09-29T07:56:17;8.80;99.90
19878;DHT22;10101;52.204;9.910;2022-09-29T07:58:45;8.90;99.90
19878;DHT22;10101;52.204;9.910;2022-09-29T08:01:13;9.10;99.90
19878;DHT22;10101;52.204;9.910;2022-09-29T08:03:41;9.20;99.90
19878;DHT22;10101;52.204;9.910;2022-09-29T08:06:10;9.20;99.90
19878;DHT22;10101;52.204;9.910;2022-09-29T08:08:37;9.30;99.90
19878;DHT22;10101;52.204;9.910;2022-09-29T08:11:06;9.60;99.90
19878;DHT22;10101;52.204;9.910;2022-09-29T08:13:35;9.60;99.90
19878;DHT22;10101;52.204;9.910;2022-09-29T08:16:03;9.80;99.90
19878;DHT22;10101;52.204;9.910;2022-09-29T08:18:31;9.90;99.90
19878;DHT22;10101;52.204;9.910;2022-09-29T08:20:58;9.80;99.90
19878;DHT22;10101;52.204;9.910;2022-09-29T08:23:24;9.80;99.90
19878;DHT22;10101;52.204;9.910;2022-09-29T08:25:58;9.90;99.90
19878;DHT22;10101;52.204;9.910;2022-09-29T08:28:27;9.90;99.90
19878;DHT22;10101;52.204;9.910;2022-09-29T08:30:55;10.00;99.90
19878;DHT22;10101;52.204;9.910;2022-09-29T08:33:23;10.00;99.90
19878;DHT22;10101;52.204;9.910;2022-09-29T08:35:55;10.10;99.90
19878;DHT22;10101;52.204;9.910;2022-09-29T08:38:22;10.20;99.90
19878;DHT22;10101;52.204;9.910;2022-09-29T08:40:49;10.40;99.90
19878;DHT22;10101;52.204;9.910;2022-09-29T08:43:21;10.30;99.90
19878;DHT22;10101;52.204;9.910;2022-09-29T08:45:57;10.40;99.90
19878;DHT22;10101;52.204;9.910;2022-09-29T08:48:28;10.30;99.90
19878;DHT22;10101;52.204;9.910;2022-09-29T08:50:58;10.40;99.90
19878;DHT22;10101;52.204;9.910;2022-09-29T08:53:30;10.60;99.90
19878;DHT22;10101;52.204;9.910;2022-09-29T08:56:01;10.50;99.90
19878;DHT22;10101;52.204;9.910;2022-09-29T08:58:28;10.50;99.90
19878;DHT22;10101;52.204;9.910;2022-09-29T09:01:06;10.70;99.90
19878;DHT22;10101;52.204;9.910;2022-09-29T09:03:56;10.70;99.90
19878;DHT22;10101;52.204;9.910;2022-09-29T09:06:37;10.60;99.90
19878;DHT22;10101;52.204;9.910;2022-09-29T09:09:17;10.50;99.90
19878;DHT22;10101;52.204;9.910;2022-09-29T09:12:00;10.50;99.90
19878;DHT22;10101;52.204;9.910;2022-09-29T09:14:43;10.70;99.90
19878;DHT22;10101;52.204;9.910;2022-09-29T09:17:23;10.80;99.90
19878;DHT22;10101;52.204;9.910;2022-09-29T09:20:00;10.90;99.90
19878;DHT22;10101;52.204;9.910;2022-09-29T09:22:42;10.80;99.90
19878;DHT22;10101;52.204;9.910;2022-09-29T09:25:19;11.00;99.90
19878;DHT22;10101;52.204;9.910;2022-09-29T09:27:55;11.00;99.90
19878;DHT22;10101;52.204;9.910;2022-09-29T09:30:27;11.20;99.90
19878;DHT22;10101;52.204;9.910;2022-09-29T09:33:01;11.20;99.90
19878;DHT22;10101;52.204;9.910;2022-09-29T09:35:34;11.10;99.90
19878;DHT22;10101;52.204;9.910;2022-09-29T09:38:10;11.00;99.90
19878;DHT22;10101;52.204;9.910;2022-09-29T09:40:43;10.90;99.90
19878;DHT22;10101;52.204;9.910;2022-09-29T09:43:13;11.10;99.90
19878;DHT22;10101;52.204;9.910;2022-09-29T09:45:47;11.20;99.90
19878;DHT22;10101;52.204;9.910;2022-09-29T09:48:20;11.30;99.90
19878;DHT22;10101;52.204;9.910;2022-09-29T09:50:48;11.30;99.90
19878;DHT22;10101;52.204;9.910;2022-09-29T09:53:19;11.50;99.90
19878;DHT22;10101;52.204;9.910;2022-09-29T09:55:55;11.60;99.90
19878;DHT22;10101;52.204;9.910;2022-09-29T09:58:42;11.60;99.90
19878;DHT22;10101;52.204;9.910;2022-09-29T10:01:14;11.80;99.90
19878;DHT22;10101;52.204;9.910;2022-09-29T10:03:42;11.80;99.90
19878;DHT22;10101;52.204;9.910;2022-09-29T10:06:09;11.80;99.90
19878;DHT22;10101;52.204;9.910;2022-09-29T10:08:38;11.90;99.90
19878;DHT22;10101;52.204;9.910;2022-09-29T10:11:20;12.00;99.90
19878;DHT22;10101;52.204;9.910;2022-09-29T10:13:51;12.00;99.90
19878;DHT22;10101;52.204;9.910;2022-09-29T10:16:26;12.10;99.90
19878;DHT22;10101;52.204;9.910;2022-09-29T10:18:55;12.20;99.90
19878;DHT22;10101;52.204;9.910;2022-09-29T10:21:34;12.10;99.90
19878;DHT22;10101;52.204;9.910;2022-09-29T10:24:02;12.10;99.90
19878;DHT22;10101;52.204;9.910;2022-09-29T10:26:34;12.30;99.90
19878;DHT22;10101;52.204;9.910;2022-09-29T10:29:03;12.50;99.90
19878;DHT22;10101;52.204;9.910;2022-09-29T10:31:42;12.40;99.90
19878;DHT22;10101;52.204;9.910;2022-09-29T10:34:24;12.40;99.90
19878;DHT22;10101;52.204;9.910;2022-09-29T10:36:52;12.50;99.90
19878;DHT22;10101;52.204;9.910;2022-09-29T10:39:36;12.70;99.90
19878;DHT22;10101;52.204;9.910;2022-09-29T10:42:15;12.80;99.90
19878;DHT22;10101;52.204;9.910;2022-09-29T10:44:43;12.80;99.90
19878;DHT22;10101;52.204;9.910;2022-09-29T10:47:15;12.80;99.90
19878;DHT22;10101;52.204;9.910;2022-09-29T10:49:43;12.80;99.90
19878;DHT22;10101;52.204;9.910;2022-09-29T10:52:21;13.00;99.90
19878;DHT22;10101;52.204;9.910;2022-09-29T10:54:54;13.00;99.90
19878;DHT22;10101;52.204;9.910;2022-09-29T10:57:25;13.10;99.90
19878;DHT22;10101;52.204;9.910;2022-09-29T10:59:53;13.10;99.90
19878;DHT22;10101;52.204;9.910;2022-09-29T11:02:25;13.00;99.90
19878;DHT22;10101;52.204;9.910;2022-09-29T11:04:58;12.90;99.90
19878;DHT22;10101;52.204;9.910;2022-09-29T11:07:26;12.70;99.90
19878;DHT22;10101;52.204;9.910;2022-09-29T11:09:53;12.70;99.90
19878;DHT22;10101;52.204;9.910;2022-09-29T11:12:34;12.70;99.90
19878;DHT22;10101;52.204;9.910;2022-09-29T11:15:22;12.70;99.90
19878;DHT22;10101;52.204;9.910;2022-09-29T11:17:50;13.10;99.90
19878;DHT22;10101;52.204;9.910;2022-09-29T11:20:20;13.40;99.90
19878;DHT22;10101;52.204;9.910;2022-09-29T11:23:13;13.70;99.90
19878;DHT22;10101;52.204;9.910;2022-09-29T11:29:07;13.70;99.90
19878;DHT22;10101;52.204;9.910;2022-09-29T11:31:49;13.60;99.90
19878;DHT22;10101;52.204;9.910;2022-09-29T11:37:41;13.80;99.90
19878;DHT22;10101;52.204;9.910;2022-09-29T11:40:11;14.00;1.00
19878;DHT22;10101;52.204;9.910;2022-09-29T11:43:07;14.00;99.90
19878;DHT22;10101;52.204;9.910;2022-09-29T11:45:42;14.00;1.00
19878;DHT22;10101;52.204;9.910;2022-09-29T11:48:41;14.10;99.90
19878;DHT22;10101;52.204;9.910;2022-09-29T11:51:15;13.90;99.90
19878;DHT22;10101;52.204;9.910;2022-09-29T11:54:11;13.90;4.60
19878;DHT22;10101;52.204;9.910;2022-09-29T11:56:47;14.10;1.00
19878;DHT22;10101;52.204;9.910;2022-09-29T11:59:37;14.40;99.90
19878;DHT22;10101;52.204;9.910;2022-09-29T12:02:27;14.50;1.00
19878;DHT22;10101;52.204;9.910;2022-09-29T12:04:59;14.30;1.00
19878;DHT22;10101;52.204;9.910;2022-09-29T12:07:35;14.40;99.90
19878;DHT22;10101;52.204;9.910;2022-09-29T12:10:26;14.60;1.00
19878;DHT22;10101;52.204;9.910;2022-09-29T12:13:04;14.60;1.00
19878;DHT22;10101;52.204;9.910;2022-09-29T12:15:43;14.90;99.90
19878;DHT22;10101;52.204;9.910;2022-09-29T12:18:15;15.00;99.90
19878;DHT22;10101;52.204;9.910;2022-09-29T12:20:45;15.30;99.90
19878;DHT22;10101;52.204;9.910;2022-09-29T12:23:15;15.30;1.00
19878;DHT22;10101;52.204;9.910;2022-09-29T12:25:55;15.20;1.00
19878;DHT22;10101;52.204;9.910;2022-09-29T12:28:27;15.60;1.00
19878;DHT22;10101;52.204;9.910;2022-09-29T12:30:59;15.40;1.00
19878;DHT22;10101;52.204;9.910;2022-09-29T12:33:32;15.80;1.00
19878;DHT22;10101;52.204;9.910;2022-09-29T12:36:15;16.00;1.00
19878;DHT22;10101;52.204;9.910;2022-09-29T12:39:04;16.20;1.00
19878;DHT22;10101;52.204;9.910;2022-09-29T12:41:39;16.00;99.90
19878;DHT22;10101;52.204;9.910;2022-09-29T12:44:13;15.70;99.90
19878;DHT22;10101;52.204;9.910;2022-09-29T12:46:46;15.70;34.80
19878;DHT22;10101;52.204;9.910;2022-09-29T12:49:18;15.70;1.00
19878;DHT22;10101;52.204;9.910;2022-09-29T12:51:48;15.60;1.00
19878;DHT22;10101;52.204;9.910;2022-09-29T12:54:19;15.60;1.00
19878;DHT22;10101;52.204;9.910;2022-09-29T12:56:53;15.90;1.00
19878;DHT22;10101;52.204;9.910;2022-09-29T12:59:28;15.50;1.00
19878;DHT22;10101;52.204;9.910;2022-09-29T13:01:57;15.10;99.90
19878;DHT22;10101;52.204;9.910;2022-09-29T13:04:56;15.00;48.00
19878;DHT22;10101;52.204;9.910;2022-09-29T13:07:47;14.80;1.00
19878;DHT22;10101;52.204;9.910;2022-09-29T13:10:26;15.00;98.40
19878;DHT22;10101;52.204;9.910;2022-09-29T13:13:09;14.80;99.90
19878;DHT22;10101;52.204;9.910;2022-09-29T13:15:50;14.80;1.00
19878;DHT22;10101;52.204;9.910;2022-09-29T13:18:41;14.70;1.00
19878;DHT22;10101;52.204;9.910;2022-09-29T13:21:19;14.60;1.00
19878;DHT22;10101;52.204;9.910;2022-09-29T13:24:00;14.70;1.00
19878;DHT22;10101;52.204;9.910;2022-09-29T13:29:22;14.60;1.00
19878;DHT22;10101;52.204;9.910;2022-09-29T13:31:50;14.70;1.00
19878;DHT22;10101;52.204;9.910;2022-09-29T13:34:24;14.60;68.20
19878;DHT22;10101;52.204;9.910;2022-09-29T13:36:53;14.60;33.20
19878;DHT22;10101;52.204;9.910;2022-09-29T13:39:30;14.60;69.80
19878;DHT22;10101;52.204;9.910;2022-09-29T13:42:35;14.50;99.90
19878;DHT22;10101;52.204;9.910;2022-09-29T13:48:44;14.40;1.00
19878;DHT22;10101;52.204;9.910;2022-09-29T13:51:23;14.50;1.00
19878;DHT22;10101;52.204;9.910;2022-09-29T13:54:19;14.70;1.00
19878;DHT22;10101;52.204;9.910;2022-09-29T13:56:48;15.00;1.00
19878;DHT22;10101;52.204;9.910;2022-09-29T13:59:22;14.80;18.60
19878;DHT22;10101;52.204;9.910;2022-09-29T14:01:50;14.80;1.00
19878;DHT22;10101;52.204;9.910;2022-09-29T14:04:42;14.60;1.00
19878;DHT22;10101;52.204;9.910;2022-09-29T14:07:11;14.60;99.90
19878;DHT22;10101;52.204;9.910;2022-09-29T14:09:42;14.60;1.00
19878;DHT22;10101;52.204;9.910;2022-09-29T14:12:16;14.70;1.00
19878;DHT22;10101;52.204;9.910;2022-09-29T14:14:46;14.70;99.90
19878;DHT22;10101;52.204;9.910;2022-09-29T14:17:21;14.70;99.90
19878;DHT22;10101;52.204;9.910;2022-09-29T14:19:54;15.00;1.00
19878;DHT22;10101;52.204;9.910;2022-09-29T14:22:53;15.00;1.00
19878;DHT22;10101;52.204;9.910;2022-09-29T14:28:37;17.30;99.90
19878;DHT22;10101;52.204;9.910;2022-09-29T14:31:17;18.60;99.90
19878;DHT22;10101;52.204;9.910;2022-09-29T14:33:48;20.10;1.00
19878;DHT22;10101;52.204;9.910;2022-09-29T14:36:20;21.10;99.90
19878;DHT22;10101;52.204;9.910;2022-09-29T14:38:49;22.40;99.90
19878;DHT22;10101;52.204;9.910;2022-09-29T14:41:27;20.50;1.00
19878;DHT22;10101;52.204;9.910;2022-09-29T14:43:58;19.80;1.00
19878;DHT22;10101;52.204;9.910;2022-09-29T14:46:36;21.00;1.00
19878;DHT22;10101;52.204;9.910;2022-09-29T14:49:42;19.90;1.00
19878;DHT22;10101;52.204;9.910;2022-09-29T14:52:39;20.70;1.00
19878;DHT22;10101;52.204;9.910;2022-09-29T14:55:14;20.70;99.90
19878;DHT22;10101;52.204;9.910;2022-09-29T14:58:23;21.80;99.90
19878;DHT22;10101;52.204;9.910;2022-09-29T15:01:03;22.80;99.90
19878;DHT22;10101;52.204;9.910;2022-09-29T15:03:41;22.80;94.60
19878;DHT22;10101;52.204;9.910;2022-09-29T15:06:12;22.00;1.00
19878;DHT22;10101;52.204;9.910;2022-09-29T15:08:41;22.20;1.00
19878;DHT22;10101;52.204;9.910;2022-09-29T15:11:31;22.40;1.00
19878;DHT22;10101;52.204;9.910;2022-09-29T15:14:16;22.40;1.00
19878;DHT22;10101;52.204;9.910;2022-09-29T15:16:48;19.20;99.90
19878;DHT22;10101;52.204;9.910;2022-09-29T15:19:31;19.50;99.90
19878;DHT22;10101;52.204;9.910;2022-09-29T15:22:13;20.40;99.90
19878;DHT22;10101;52.204;9.910;2022-09-29T15:24:53;21.70;99.90
19878;DHT22;10101;52.204;9.910;2022-09-29T15:27:24;20.00;99.90
19878;DHT22;10101;52.204;9.910;2022-09-29T15:29:54;21.40;99.90
19878;DHT22;10101;52.204;9.910;2022-09-29T15:32:25;21.40;99.90
19878;DHT22;10101;52.204;9.910;2022-09-29T15:34:53;19.20;1.00
19878;DHT22;10101;52.204;9.910;2022-09-29T15:37:25;17.50;99.90
19878;DHT22;10101;52.204;9.910;2022-09-29T15:39:53;18.30;1.00
19878;DHT22;10101;52.204;9.910;2022-09-29T15:42:21;17.70;1.00
19878;DHT22;10101;52.204;9.910;2022-09-29T15:44:54;17.00;1.00
19878;DHT22;10101;52.204;9.910;2022-09-29T15:47:36;16.30;99.90
19878;DHT22;10101;52.204;9.910;2022-09-29T15:50:16;15.90;99.90
19878;DHT22;10101;52.204;9.910;2022-09-29T15:52:43;15.60;6.80
19878;DHT22;10101;52.204;9.910;2022-09-29T15:55:14;15.30;1.00
19878;DHT22;10101;52.204;9.910;2022-09-29T15:57:43;15.10;99.90
19878;DHT22;10101;52.204;9.910;2022-09-29T16:03:23;14.70;1.00
19878;DHT22;10101;52.204;9.910;2022-09-29T16:06:03;14.50;1.00
19878;DHT22;10101;52.204;9.910;2022-09-29T16:08:33;14.40;24.60
19878;DHT22;10101;52.204;9.910;2022-09-29T16:11:05;14.20;1.00
19878;DHT22;10101;52.204;9.910;2022-09-29T16:13:35;14.20;1.00
19878;DHT22;10101;52.204;9.910;2022-09-29T16:16:06;14.00;1.00
19878;DHT22;10101;52.204;9.910;2022-09-29T16:18:38;14.00;1.00
19878;DHT22;10101;52.204;9.910;2022-09-29T16:21:08;13.90;99.90
19878;DHT22;10101;52.204;9.910;2022-09-29T16:23:40;13.90;99.90
19878;DHT22;10101;52.204;9.910;2022-09-29T16:26:15;13.80;99.90
19878;DHT22;10101;52.204;9.910;2022-09-29T16:29:03;13.60;99.90
19878;DHT22;10101;52.204;9.910;2022-09-29T16:31:33;13.50;99.90
19878;DHT22;10101;52.204;9.910;2022-09-29T16:34:00;13.40;99.90
19878;DHT22;10101;52.204;9.910;2022-09-29T16:36:28;13.30;10.30
19878;DHT22;10101;52.204;9.910;2022-09-29T16:38:56;13.10;1.00